sensor_id;sensor_type;location;lat;lon;timestamp;P1;durP1;ratioP1;P2;durP2;ratioP2
18720;SDS011;9489;50.948;3.114;2024-02-21T00:00:15;6.30;;;4.45;;
18720;SDS011;9489;50.948;3.114;2024-02-21T00:02:41;5.68;;;4.32;;
18720;SDS011;9489;50.948;3.114;2024-02-21T00:05:06;5.72;;;4.53;;
18720;SDS011;9489;50.948;3.114;2024-02-21T00:07:32;5.88;;;4.85;;
18720;SDS011;9489;50.948;3.114;2024-02-21T00:09:58;6.03;;;4.65;;
18720;SDS011;9489;50.948;3.114;2024-02-21T00:12:23;4.47;;;4.07;;
18720;SDS011;9489;50.948;3.114;2024-02-21T00:14:49;8.48;;;4.95;;
18720;SDS011;9489;50.948;3.114;2024-02-21T00:17:15;5.82;;;5.07;;
18720;SDS011;9489;50.948;3.114;2024-02-21T00:19:40;4.70;;;4.28;;
18720;SDS011;9489;50.948;3.114;2024-02-21T00:22:06;5.47;;;4.97;;
18720;SDS011;9489;50.948;3.114;2024-02-21T00:24:32;5.18;;;4.53;;
18720;SDS011;9489;50.948;3.114;2024-02-21T00:26:57;5.47;;;4.78;;
18720;SDS011;9489;50.948;3.114;2024-02-21T00:29:23;7.47;;;5.10;;
18720;SDS011;9489;50.948;3.114;2024-02-21T00:31:49;6.90;;;5.25;;
18720;SDS011;9489;50.948;3.114;2024-02-21T00:34:14;6.85;;;4.68;;
18720;SDS011;9489;50.948;3.114;2024-02-21T00:36:40;7.07;;;6.03;;
18720;SDS011;9489;50.948;3.114;2024-02-21T00:39:06;6.10;;;5.50;;
18720;SDS011;9489;50.948;3.114;2024-02-21T00:41:31;7.22;;;6.13;;
18720;SDS011;9489;50.948;3.114;2024-02-21T00:43:58;6.07;;;5.47;;
18720;SDS011;9489;50.948;3.114;2024-02-21T00:46:23;7.53;;;6.15;;
18720;SDS011;9489;50.948;3.114;2024-02-21T00:48:49;7.05;;;6.25;;
18720;SDS011;9489;50.948;3.114;2024-02-21T00:51:15;7.40;;;5.93;;
18720;SDS011;9489;50.948;3.114;2024-02-21T00:53:42;8.32;;;6.82;;
18720;SDS011;9489;50.948;3.114;2024-02-21T00:56:07;7.93;;;6.60;;
18720;SDS011;9489;50.948;3.114;2024-02-21T00:58:33;8.20;;;6.03;;
18720;SDS011;9489;50.948;3.114;2024-02-21T01:01:00;8.60;;;6.03;;
18720;SDS011;9489;50.948;3.114;2024-02-21T01:03:26;7.75;;;6.28;;
18720;SDS011;9489;50.948;3.114;2024-02-21T01:05:52;8.10;;;7.05;;
18720;SDS011;9489;50.948;3.114;2024-02-21T01:08:17;9.10;;;7.38;;
18720;SDS011;9489;50.948;3.114;2024-02-21T01:10:43;9.18;;;6.55;;
18720;SDS011;9489;50.948;3.114;2024-02-21T01:13:08;7.80;;;7.00;;
18720;SDS011;9489;50.948;3.114;2024-02-21T01:15:34;9.05;;;6.88;;
18720;SDS011;9489;50.948;3.114;2024-02-21T01:18:00;7.97;;;7.18;;
18720;SDS011;9489;50.948;3.114;2024-02-21T01:20:26;9.25;;;6.90;;
18720;SDS011;9489;50.948;3.114;2024-02-21T01:22:52;8.88;;;7.25;;
18720;SDS011;9489;50.948;3.114;2024-02-21T01:25:17;9.07;;;7.50;;
18720;SDS011;9489;50.948;3.114;2024-02-21T01:27:43;8.05;;;7.25;;
18720;SDS011;9489;50.948;3.114;2024-02-21T01:30:09;8.25;;;7.05;;
18720;SDS011;9489;50.948;3.114;2024-02-21T01:32:36;9.48;;;8.25;;
18720;SDS011;9489;50.948;3.114;2024-02-21T01:35:01;9.30;;;7.90;;
18720;SDS011;9489;50.948;3.114;2024-02-21T01:37:27;9.18;;;8.10;;
18720;SDS011;9489;50.948;3.114;2024-02-21T01:39:53;9.95;;;8.52;;
18720;SDS011;9489;50.948;3.114;2024-02-21T01:42:18;10.82;;;8.80;;
18720;SDS011;9489;50.948;3.114;2024-02-21T01:44:44;11.52;;;8.93;;
18720;SDS011;9489;50.948;3.114;2024-02-21T01:47:10;10.70;;;8.98;;
18720;SDS011;9489;50.948;3.114;2024-02-21T01:49:39;11.52;;;10.05;;
18720;SDS011;9489;50.948;3.114;2024-02-21T01:52:05;10.40;;;9.32;;
18720;SDS011;9489;50.948;3.114;2024-02-21T01:54:32;12.27;;;10.75;;
18720;SDS011;9489;50.948;3.114;2024-02-21T01:56:58;10.95;;;9.73;;
18720;SDS011;9489;50.948;3.114;2024-02-21T01:59:24;12.93;;;10.23;;
18720;SDS011;9489;50.948;3.114;2024-02-21T02:01:50;12.35;;;10.88;;
18720;SDS011;9489;50.948;3.114;2024-02-21T02:04:17;13.45;;;11.40;;
18720;SDS011;9489;50.948;3.114;2024-02-21T02:06:45;13.98;;;11.90;;
18720;SDS011;9489;50.948;3.114;2024-02-21T02:09:11;13.00;;;11.57;;
18720;SDS011;9489;50.948;3.114;2024-02-21T02:11:37;18.75;;;12.52;;
18720;SDS011;9489;50.948;3.114;2024-02-21T02:14:02;15.10;;;12.80;;
18720;SDS011;9489;50.948;3.114;2024-02-21T02:16:28;18.80;;;12.93;;
18720;SDS011;9489;50.948;3.114;2024-02-21T02:18:54;19.58;;;13.63;;
18720;SDS011;9489;50.948;3.114;2024-02-21T02:21:37;19.23;;;13.95;;
18720;SDS011;9489;50.948;3.114;2024-02-21T02:24:06;18.80;;;12.90;;
18720;SDS011;9489;50.948;3.114;2024-02-21T02:26:32;19.30;;;12.40;;
18720;SDS011;9489;50.948;3.114;2024-02-21T02:28:58;22.33;;;13.90;;
18720;SDS011;9489;50.948;3.114;2024-02-21T02:31:26;15.98;;;12.25;;
18720;SDS011;9489;50.948;3.114;2024-02-21T02:33:51;19.52;;;12.60;;
18720;SDS011;9489;50.948;3.114;2024-02-21T02:36:17;20.45;;;12.30;;
18720;SDS011;9489;50.948;3.114;2024-02-21T02:38:43;19.65;;;12.15;;
18720;SDS011;9489;50.948;3.114;2024-02-21T02:41:08;23.13;;;12.68;;
18720;SDS011;9489;50.948;3.114;2024-02-21T02:43:34;21.08;;;12.15;;
18720;SDS011;9489;50.948;3.114;2024-02-21T02:46:01;23.17;;;11.68;;
18720;SDS011;9489;50.948;3.114;2024-02-21T02:48:27;17.33;;;11.45;;
18720;SDS011;9489;50.948;3.114;2024-02-21T02:50:53;19.20;;;11.32;;
18720;SDS011;9489;50.948;3.114;2024-02-21T02:53:18;17.70;;;11.73;;
18720;SDS011;9489;50.948;3.114;2024-02-21T02:55:44;21.73;;;12.60;;
18720;SDS011;9489;50.948;3.114;2024-02-21T02:58:10;19.98;;;12.52;;
18720;SDS011;9489;50.948;3.114;2024-02-21T03:00:36;17.98;;;12.13;;
18720;SDS011;9489;50.948;3.114;2024-02-21T03:03:01;23.15;;;12.70;;
18720;SDS011;9489;50.948;3.114;2024-02-21T03:05:30;15.98;;;12.10;;
18720;SDS011;9489;50.948;3.114;2024-02-21T03:07:56;16.10;;;11.60;;
18720;SDS011;9489;50.948;3.114;2024-02-21T03:10:21;16.45;;;12.18;;
18720;SDS011;9489;50.948;3.114;2024-02-21T03:12:47;17.90;;;11.32;;
18720;SDS011;9489;50.948;3.114;2024-02-21T03:15:13;21.33;;;12.10;;
18720;SDS011;9489;50.948;3.114;2024-02-21T03:17:39;23.45;;;11.77;;
18720;SDS011;9489;50.948;3.114;2024-02-21T03:20:05;22.75;;;13.35;;
18720;SDS011;9489;50.948;3.114;2024-02-21T03:22:34;19.63;;;12.73;;
18720;SDS011;9489;50.948;3.114;2024-02-21T03:25:00;22.05;;;12.38;;
18720;SDS011;9489;50.948;3.114;2024-02-21T03:27:26;20.42;;;12.73;;
18720;SDS011;9489;50.948;3.114;2024-02-21T03:29:52;23.48;;;13.10;;
18720;SDS011;9489;50.948;3.114;2024-02-21T03:32:17;20.42;;;12.38;;
18720;SDS011;9489;50.948;3.114;2024-02-21T03:34:43;20.27;;;12.55;;
18720;SDS011;9489;50.948;3.114;2024-02-21T03:37:08;19.95;;;11.95;;
18720;SDS011;9489;50.948;3.114;2024-02-21T03:39:34;20.92;;;12.68;;
18720;SDS011;9489;50.948;3.114;2024-02-21T03:42:00;22.80;;;12.90;;
18720;SDS011;9489;50.948;3.114;2024-02-21T03:44:29;20.63;;;13.25;;
18720;SDS011;9489;50.948;3.114;2024-02-21T03:47:01;23.52;;;12.18;;
18720;SDS011;9489;50.948;3.114;2024-02-21T03:49:27;17.65;;;12.65;;
18720;SDS011;9489;50.948;3.114;2024-02-21T03:51:52;18.17;;;11.95;;
18720;SDS011;9489;50.948;3.114;2024-02-21T03:54:18;19.08;;;12.75;;
18720;SDS011;9489;50.948;3.114;2024-02-21T03:56:44;21.38;;;12.95;;
18720;SDS011;9489;50.948;3.114;2024-02-21T03:59:12;19.13;;;12.45;;
18720;SDS011;9489;50.948;3.114;2024-02-21T04:01:38;22.25;;;12.25;;
18720;SDS011;9489;50.948;3.114;2024-02-21T04:04:04;19.75;;;13.50;;
18720;SDS011;9489;50.948;3.114;2024-02-21T04:06:30;16.92;;;12.93;;
18720;SDS011;9489;50.948;3.114;2024-02-21T04:08:56;18.33;;;11.85;;
18720;SDS011;9489;50.948;3.114;2024-02-21T04:11:22;18.95;;;12.00;;
18720;SDS011;9489;50.948;3.114;2024-02-21T04:13:47;17.08;;;12.63;;
18720;SDS011;9489;50.948;3.114;2024-02-21T04:16:14;19.90;;;13.55;;
18720;SDS011;9489;50.948;3.114;2024-02-21T04:18:40;21.23;;;14.55;;
18720;SDS011;9489;50.948;3.114;2024-02-21T04:21:06;22.27;;;12.95;;
18720;SDS011;9489;50.948;3.114;2024-02-21T04:23:32;18.77;;;11.77;;
18720;SDS011;9489;50.948;3.114;2024-02-21T04:25:58;14.98;;;11.98;;
18720;SDS011;9489;50.948;3.114;2024-02-21T04:28:23;19.77;;;12.35;;
18720;SDS011;9489;50.948;3.114;2024-02-21T04:30:49;17.90;;;11.95;;
18720;SDS011;9489;50.948;3.114;2024-02-21T04:33:15;20.45;;;11.98;;
18720;SDS011;9489;50.948;3.114;2024-02-21T04:35:40;14.13;;;11.65;;
18720;SDS011;9489;50.948;3.114;2024-02-21T04:38:06;19.33;;;13.30;;
18720;SDS011;9489;50.948;3.114;2024-02-21T04:40:32;20.95;;;13.35;;
18720;SDS011;9489;50.948;3.114;2024-02-21T04:42:57;17.27;;;12.90;;
18720;SDS011;9489;50.948;3.114;2024-02-21T04:45:23;18.52;;;12.40;;
18720;SDS011;9489;50.948;3.114;2024-02-21T04:47:49;19.50;;;12.63;;
18720;SDS011;9489;50.948;3.114;2024-02-21T04:50:14;17.73;;;12.75;;
18720;SDS011;9489;50.948;3.114;2024-02-21T04:52:40;18.27;;;13.07;;
18720;SDS011;9489;50.948;3.114;2024-02-21T04:55:06;18.17;;;11.95;;
18720;SDS011;9489;50.948;3.114;2024-02-21T04:57:32;16.80;;;12.45;;
18720;SDS011;9489;50.948;3.114;2024-02-21T04:59:58;16.42;;;12.30;;
18720;SDS011;9489;50.948;3.114;2024-02-21T05:02:23;19.48;;;13.50;;
18720;SDS011;9489;50.948;3.114;2024-02-21T05:04:50;20.02;;;12.55;;
18720;SDS011;9489;50.948;3.114;2024-02-21T05:07:15;20.20;;;13.13;;
18720;SDS011;9489;50.948;3.114;2024-02-21T05:09:45;15.88;;;11.73;;
18720;SDS011;9489;50.948;3.114;2024-02-21T05:12:11;13.95;;;11.00;;
18720;SDS011;9489;50.948;3.114;2024-02-21T05:14:36;13.57;;;11.50;;
18720;SDS011;9489;50.948;3.114;2024-02-21T05:17:03;15.75;;;12.15;;
18720;SDS011;9489;50.948;3.114;2024-02-21T05:19:29;18.00;;;12.35;;
18720;SDS011;9489;50.948;3.114;2024-02-21T05:21:54;14.23;;;11.02;;
18720;SDS011;9489;50.948;3.114;2024-02-21T05:24:20;14.38;;;11.52;;
18720;SDS011;9489;50.948;3.114;2024-02-21T05:26:46;15.38;;;11.77;;
18720;SDS011;9489;50.948;3.114;2024-02-21T05:29:11;13.73;;;11.75;;
18720;SDS011;9489;50.948;3.114;2024-02-21T05:34:21;15.75;;;13.02;;
18720;SDS011;9489;50.948;3.114;2024-02-21T05:36:46;17.35;;;11.70;;
18720;SDS011;9489;50.948;3.114;2024-02-21T05:39:14;15.85;;;11.88;;
18720;SDS011;9489;50.948;3.114;2024-02-21T05:41:40;17.15;;;12.13;;
18720;SDS011;9489;50.948;3.114;2024-02-21T05:44:06;16.25;;;11.45;;
18720;SDS011;9489;50.948;3.114;2024-02-21T05:46:31;13.82;;;11.15;;
18720;SDS011;9489;50.948;3.114;2024-02-21T05:48:57;13.57;;;11.93;;
18720;SDS011;9489;50.948;3.114;2024-02-21T05:51:22;16.58;;;11.30;;
18720;SDS011;9489;50.948;3.114;2024-02-21T05:53:48;14.05;;;11.45;;
18720;SDS011;9489;50.948;3.114;2024-02-21T05:56:14;14.43;;;11.90;;
18720;SDS011;9489;50.948;3.114;2024-02-21T05:58:40;15.45;;;10.18;;
18720;SDS011;9489;50.948;3.114;2024-02-21T06:01:06;18.27;;;11.13;;
18720;SDS011;9489;50.948;3.114;2024-02-21T06:03:33;16.40;;;11.45;;
18720;SDS011;9489;50.948;3.114;2024-02-21T06:05:59;13.60;;;10.52;;
18720;SDS011;9489;50.948;3.114;2024-02-21T06:08:25;13.85;;;10.82;;
18720;SDS011;9489;50.948;3.114;2024-02-21T06:10:51;13.95;;;10.02;;
18720;SDS011;9489;50.948;3.114;2024-02-21T06:13:25;11.95;;;9.93;;
18720;SDS011;9489;50.948;3.114;2024-02-21T06:15:51;12.45;;;10.57;;
18720;SDS011;9489;50.948;3.114;2024-02-21T06:18:17;17.73;;;13.00;;
18720;SDS011;9489;50.948;3.114;2024-02-21T06:20:43;16.00;;;11.10;;
18720;SDS011;9489;50.948;3.114;2024-02-21T06:23:08;14.57;;;10.38;;
18720;SDS011;9489;50.948;3.114;2024-02-21T06:25:34;14.88;;;10.35;;
18720;SDS011;9489;50.948;3.114;2024-02-21T06:28:00;13.43;;;9.27;;
18720;SDS011;9489;50.948;3.114;2024-02-21T06:30:26;16.00;;;10.10;;
18720;SDS011;9489;50.948;3.114;2024-02-21T06:32:52;12.35;;;9.40;;
18720;SDS011;9489;50.948;3.114;2024-02-21T06:35:17;12.50;;;10.25;;
18720;SDS011;9489;50.948;3.114;2024-02-21T06:37:43;11.90;;;10.43;;
18720;SDS011;9489;50.948;3.114;2024-02-21T06:40:15;13.45;;;10.80;;
18720;SDS011;9489;50.948;3.114;2024-02-21T06:42:41;14.55;;;10.60;;
18720;SDS011;9489;50.948;3.114;2024-02-21T06:45:06;13.52;;;10.50;;
18720;SDS011;9489;50.948;3.114;2024-02-21T06:47:32;13.25;;;10.23;;
18720;SDS011;9489;50.948;3.114;2024-02-21T06:49:58;14.73;;;9.95;;
18720;SDS011;9489;50.948;3.114;2024-02-21T06:52:24;18.23;;;10.32;;
18720;SDS011;9489;50.948;3.114;2024-02-21T06:54:50;12.25;;;10.98;;
18720;SDS011;9489;50.948;3.114;2024-02-21T06:57:15;13.27;;;9.93;;
18720;SDS011;9489;50.948;3.114;2024-02-21T06:59:41;13.52;;;9.50;;
18720;SDS011;9489;50.948;3.114;2024-02-21T07:02:07;12.77;;;10.32;;
18720;SDS011;9489;50.948;3.114;2024-02-21T07:04:34;14.82;;;9.70;;
18720;SDS011;9489;50.948;3.114;2024-02-21T07:06:59;13.02;;;9.85;;
18720;SDS011;9489;50.948;3.114;2024-02-21T07:09:25;15.23;;;10.27;;
18720;SDS011;9489;50.948;3.114;2024-02-21T07:11:51;13.15;;;10.48;;
18720;SDS011;9489;50.948;3.114;2024-02-21T07:14:18;12.60;;;10.00;;
18720;SDS011;9489;50.948;3.114;2024-02-21T07:16:43;12.10;;;10.77;;
18720;SDS011;9489;50.948;3.114;2024-02-21T07:19:09;15.07;;;10.52;;
18720;SDS011;9489;50.948;3.114;2024-02-21T07:21:35;11.15;;;9.82;;
18720;SDS011;9489;50.948;3.114;2024-02-21T07:24:03;13.02;;;10.07;;
18720;SDS011;9489;50.948;3.114;2024-02-21T07:26:30;11.85;;;10.57;;
18720;SDS011;9489;50.948;3.114;2024-02-21T07:28:56;11.20;;;10.05;;
18720;SDS011;9489;50.948;3.114;2024-02-21T07:31:22;11.18;;;10.07;;
18720;SDS011;9489;50.948;3.114;2024-02-21T07:33:47;13.77;;;10.35;;
18720;SDS011;9489;50.948;3.114;2024-02-21T07:36:14;16.60;;;9.95;;
18720;SDS011;9489;50.948;3.114;2024-02-21T07:38:40;11.73;;;10.05;;
18720;SDS011;9489;50.948;3.114;2024-02-21T07:41:06;11.07;;;9.70;;
18720;SDS011;9489;50.948;3.114;2024-02-21T07:43:32;12.07;;;10.02;;
18720;SDS011;9489;50.948;3.114;2024-02-21T07:45:57;16.17;;;10.07;;
18720;SDS011;9489;50.948;3.114;2024-02-21T07:48:23;11.13;;;9.82;;
18720;SDS011;9489;50.948;3.114;2024-02-21T07:50:52;13.65;;;10.35;;
18720;SDS011;9489;50.948;3.114;2024-02-21T07:53:17;13.75;;;10.48;;
18720;SDS011;9489;50.948;3.114;2024-02-21T07:55:45;12.13;;;9.63;;
18720;SDS011;9489;50.948;3.114;2024-02-21T07:58:10;12.60;;;9.77;;
18720;SDS011;9489;50.948;3.114;2024-02-21T08:00:36;11.52;;;10.05;;
18720;SDS011;9489;50.948;3.114;2024-02-21T08:03:02;11.02;;;9.90;;
18720;SDS011;9489;50.948;3.114;2024-02-21T08:05:28;11.65;;;9.85;;
18720;SDS011;9489;50.948;3.114;2024-02-21T08:07:55;11.80;;;9.93;;
18720;SDS011;9489;50.948;3.114;2024-02-21T08:10:20;13.35;;;10.10;;
18720;SDS011;9489;50.948;3.114;2024-02-21T08:12:46;12.93;;;9.77;;
18720;SDS011;9489;50.948;3.114;2024-02-21T08:15:12;12.10;;;10.32;;
18720;SDS011;9489;50.948;3.114;2024-02-21T08:17:37;12.82;;;9.70;;
18720;SDS011;9489;50.948;3.114;2024-02-21T08:20:06;13.30;;;10.77;;
18720;SDS011;9489;50.948;3.114;2024-02-21T08:22:32;12.00;;;10.70;;
18720;SDS011;9489;50.948;3.114;2024-02-21T08:24:58;11.85;;;9.98;;
18720;SDS011;9489;50.948;3.114;2024-02-21T08:27:24;12.50;;;10.95;;
18720;SDS011;9489;50.948;3.114;2024-02-21T08:29:50;16.65;;;11.35;;
18720;SDS011;9489;50.948;3.114;2024-02-21T08:32:15;12.63;;;10.70;;
18720;SDS011;9489;50.948;3.114;2024-02-21T08:34:41;15.90;;;11.35;;
18720;SDS011;9489;50.948;3.114;2024-02-21T08:37:07;14.38;;;11.00;;
18720;SDS011;9489;50.948;3.114;2024-02-21T08:39:33;15.10;;;12.02;;
18720;SDS011;9489;50.948;3.114;2024-02-21T08:41:58;13.20;;;11.82;;
18720;SDS011;9489;50.948;3.114;2024-02-21T08:44:24;17.40;;;12.10;;
18720;SDS011;9489;50.948;3.114;2024-02-21T08:46:52;15.40;;;12.00;;
18720;SDS011;9489;50.948;3.114;2024-02-21T08:49:18;15.00;;;12.05;;
18720;SDS011;9489;50.948;3.114;2024-02-21T08:51:44;18.30;;;12.82;;
18720;SDS011;9489;50.948;3.114;2024-02-21T08:54:10;14.57;;;12.40;;
18720;SDS011;9489;50.948;3.114;2024-02-21T08:56:36;17.55;;;12.50;;
18720;SDS011;9489;50.948;3.114;2024-02-21T08:59:02;19.05;;;13.75;;
18720;SDS011;9489;50.948;3.114;2024-02-21T09:01:27;14.32;;;12.48;;
18720;SDS011;9489;50.948;3.114;2024-02-21T09:03:53;15.15;;;12.95;;
18720;SDS011;9489;50.948;3.114;2024-02-21T09:06:21;16.58;;;12.82;;
18720;SDS011;9489;50.948;3.114;2024-02-21T09:08:47;14.60;;;13.13;;
18720;SDS011;9489;50.948;3.114;2024-02-21T09:11:13;16.30;;;12.95;;
18720;SDS011;9489;50.948;3.114;2024-02-21T09:13:39;19.00;;;13.52;;
18720;SDS011;9489;50.948;3.114;2024-02-21T09:16:04;19.63;;;13.18;;
18720;SDS011;9489;50.948;3.114;2024-02-21T09:18:31;16.52;;;12.10;;
18720;SDS011;9489;50.948;3.114;2024-02-21T09:20:56;16.20;;;12.77;;
18720;SDS011;9489;50.948;3.114;2024-02-21T09:23:25;14.35;;;12.82;;
18720;SDS011;9489;50.948;3.114;2024-02-21T09:25:50;17.55;;;13.95;;
18720;SDS011;9489;50.948;3.114;2024-02-21T09:28:16;18.67;;;13.85;;
18720;SDS011;9489;50.948;3.114;2024-02-21T09:30:42;18.45;;;13.07;;
18720;SDS011;9489;50.948;3.114;2024-02-21T09:33:08;16.20;;;12.95;;
18720;SDS011;9489;50.948;3.114;2024-02-21T09:35:33;14.57;;;12.48;;
18720;SDS011;9489;50.948;3.114;2024-02-21T09:37:59;15.40;;;12.45;;
18720;SDS011;9489;50.948;3.114;2024-02-21T09:40:26;14.38;;;12.15;;
18720;SDS011;9489;50.948;3.114;2024-02-21T09:42:56;14.32;;;12.30;;
18720;SDS011;9489;50.948;3.114;2024-02-21T09:45:29;15.68;;;12.32;;
18720;SDS011;9489;50.948;3.114;2024-02-21T09:50:47;14.13;;;11.80;;
18720;SDS011;9489;50.948;3.114;2024-02-21T09:53:15;17.95;;;12.80;;
18720;SDS011;9489;50.948;3.114;2024-02-21T09:55:41;15.35;;;11.18;;
18720;SDS011;9489;50.948;3.114;2024-02-21T09:58:09;13.55;;;11.23;;
18720;SDS011;9489;50.948;3.114;2024-02-21T10:00:35;14.88;;;11.48;;
18720;SDS011;9489;50.948;3.114;2024-02-21T10:03:01;15.85;;;11.57;;
18720;SDS011;9489;50.948;3.114;2024-02-21T10:05:32;12.98;;;11.45;;
18720;SDS011;9489;50.948;3.114;2024-02-21T10:08:01;17.30;;;11.68;;
18720;SDS011;9489;50.948;3.114;2024-02-21T10:10:28;15.48;;;11.38;;
18720;SDS011;9489;50.948;3.114;2024-02-21T10:12:55;11.77;;;10.57;;
18720;SDS011;9489;50.948;3.114;2024-02-21T10:15:21;15.35;;;12.35;;
18720;SDS011;9489;50.948;3.114;2024-02-21T10:17:48;13.40;;;11.18;;
18720;SDS011;9489;50.948;3.114;2024-02-21T10:20:14;12.75;;;11.32;;
18720;SDS011;9489;50.948;3.114;2024-02-21T10:22:41;12.43;;;10.45;;
18720;SDS011;9489;50.948;3.114;2024-02-21T10:25:07;12.30;;;10.10;;
18720;SDS011;9489;50.948;3.114;2024-02-21T10:27:33;12.25;;;10.27;;
18720;SDS011;9489;50.948;3.114;2024-02-21T10:29:58;12.32;;;9.98;;
18720;SDS011;9489;50.948;3.114;2024-02-21T10:32:24;12.20;;;10.82;;
18720;SDS011;9489;50.948;3.114;2024-02-21T10:35:00;12.45;;;10.48;;
18720;SDS011;9489;50.948;3.114;2024-02-21T10:37:33;11.40;;;9.95;;
18720;SDS011;9489;50.948;3.114;2024-02-21T10:40:00;12.75;;;11.23;;
18720;SDS011;9489;50.948;3.114;2024-02-21T10:42:28;11.82;;;10.68;;
18720;SDS011;9489;50.948;3.114;2024-02-21T10:45:00;10.85;;;9.38;;
18720;SDS011;9489;50.948;3.114;2024-02-21T10:47:29;11.63;;;10.43;;
18720;SDS011;9489;50.948;3.114;2024-02-21T10:49:57;11.52;;;10.02;;
18720;SDS011;9489;50.948;3.114;2024-02-21T10:52:39;11.77;;;10.40;;
18720;SDS011;9489;50.948;3.114;2024-02-21T10:55:26;14.57;;;10.65;;
18720;SDS011;9489;50.948;3.114;2024-02-21T10:58:02;11.32;;;10.07;;
18720;SDS011;9489;50.948;3.114;2024-02-21T11:00:28;11.93;;;10.38;;
18720;SDS011;9489;50.948;3.114;2024-02-21T11:02:56;10.88;;;9.77;;
18720;SDS011;9489;50.948;3.114;2024-02-21T11:05:23;13.13;;;10.25;;
18720;SDS011;9489;50.948;3.114;2024-02-21T11:07:50;11.93;;;10.73;;
18720;SDS011;9489;50.948;3.114;2024-02-21T11:10:26;12.52;;;11.10;;
18720;SDS011;9489;50.948;3.114;2024-02-21T11:13:07;12.48;;;10.88;;
18720;SDS011;9489;50.948;3.114;2024-02-21T11:15:33;12.80;;;10.85;;
18720;SDS011;9489;50.948;3.114;2024-02-21T11:17:59;12.85;;;10.82;;
18720;SDS011;9489;50.948;3.114;2024-02-21T11:20:49;12.60;;;10.85;;
18720;SDS011;9489;50.948;3.114;2024-02-21T11:23:23;12.55;;;11.35;;
18720;SDS011;9489;50.948;3.114;2024-02-21T11:25:52;12.65;;;11.23;;
18720;SDS011;9489;50.948;3.114;2024-02-21T11:28:28;15.00;;;11.43;;
18720;SDS011;9489;50.948;3.114;2024-02-21T11:31:04;16.48;;;11.05;;
18720;SDS011;9489;50.948;3.114;2024-02-21T11:33:47;12.32;;;10.40;;
18720;SDS011;9489;50.948;3.114;2024-02-21T11:36:23;12.50;;;10.88;;
18720;SDS011;9489;50.948;3.114;2024-02-21T11:38:50;11.73;;;10.63;;
18720;SDS011;9489;50.948;3.114;2024-02-21T11:41:16;11.52;;;10.38;;
18720;SDS011;9489;50.948;3.114;2024-02-21T11:43:42;11.52;;;10.43;;
18720;SDS011;9489;50.948;3.114;2024-02-21T11:46:07;11.60;;;10.38;;
18720;SDS011;9489;50.948;3.114;2024-02-21T11:48:34;12.25;;;9.98;;
18720;SDS011;9489;50.948;3.114;2024-02-21T11:51:00;11.82;;;10.63;;
18720;SDS011;9489;50.948;3.114;2024-02-21T11:53:26;10.93;;;9.40;;
18720;SDS011;9489;50.948;3.114;2024-02-21T11:55:56;10.60;;;9.52;;
18720;SDS011;9489;50.948;3.114;2024-02-21T11:58:22;11.50;;;9.70;;
18720;SDS011;9489;50.948;3.114;2024-02-21T12:00:48;12.60;;;9.13;;
18720;SDS011;9489;50.948;3.114;2024-02-21T12:03:14;11.00;;;9.75;;
18720;SDS011;9489;50.948;3.114;2024-02-21T12:05:41;12.02;;;9.07;;
18720;SDS011;9489;50.948;3.114;2024-02-21T12:08:06;12.05;;;8.50;;
18720;SDS011;9489;50.948;3.114;2024-02-21T12:10:33;9.75;;;8.80;;
18720;SDS011;9489;50.948;3.114;2024-02-21T12:13:07;9.65;;;8.70;;
18720;SDS011;9489;50.948;3.114;2024-02-21T12:15:33;9.55;;;8.55;;
18720;SDS011;9489;50.948;3.114;2024-02-21T12:17:59;8.60;;;7.70;;
18720;SDS011;9489;50.948;3.114;2024-02-21T12:20:25;8.38;;;7.55;;
18720;SDS011;9489;50.948;3.114;2024-02-21T12:22:51;9.15;;;7.93;;
18720;SDS011;9489;50.948;3.114;2024-02-21T12:25:20;8.95;;;7.68;;
18720;SDS011;9489;50.948;3.114;2024-02-21T12:27:53;11.20;;;7.55;;
18720;SDS011;9489;50.948;3.114;2024-02-21T12:30:19;8.23;;;7.43;;
18720;SDS011;9489;50.948;3.114;2024-02-21T12:32:45;7.60;;;6.90;;
18720;SDS011;9489;50.948;3.114;2024-02-21T12:35:11;8.07;;;7.30;;
18720;SDS011;9489;50.948;3.114;2024-02-21T12:37:37;7.95;;;6.70;;
18720;SDS011;9489;50.948;3.114;2024-02-21T12:40:04;9.88;;;7.15;;
18720;SDS011;9489;50.948;3.114;2024-02-21T12:42:32;7.78;;;6.53;;
18720;SDS011;9489;50.948;3.114;2024-02-21T12:45:01;7.47;;;6.70;;
18720;SDS011;9489;50.948;3.114;2024-02-21T12:47:28;8.60;;;6.55;;
18720;SDS011;9489;50.948;3.114;2024-02-21T12:49:53;7.30;;;6.70;;
18720;SDS011;9489;50.948;3.114;2024-02-21T12:52:19;7.90;;;7.13;;
18720;SDS011;9489;50.948;3.114;2024-02-21T12:54:45;9.20;;;7.80;;
18720;SDS011;9489;50.948;3.114;2024-02-21T12:57:10;7.88;;;7.15;;
18720;SDS011;9489;50.948;3.114;2024-02-21T12:59:36;9.07;;;8.07;;
18720;SDS011;9489;50.948;3.114;2024-02-21T13:02:02;8.63;;;7.82;;
18720;SDS011;9489;50.948;3.114;2024-02-21T13:04:27;9.15;;;8.02;;
18720;SDS011;9489;50.948;3.114;2024-02-21T13:06:53;8.60;;;7.75;;
18720;SDS011;9489;50.948;3.114;2024-02-21T13:09:20;8.50;;;7.65;;
18720;SDS011;9489;50.948;3.114;2024-02-21T13:11:46;8.57;;;7.78;;
18720;SDS011;9489;50.948;3.114;2024-02-21T13:14:12;9.75;;;7.80;;
18720;SDS011;9489;50.948;3.114;2024-02-21T13:16:37;8.02;;;6.82;;
18720;SDS011;9489;50.948;3.114;2024-02-21T13:19:06;8.00;;;6.95;;
18720;SDS011;9489;50.948;3.114;2024-02-21T13:21:35;8.18;;;7.43;;
18720;SDS011;9489;50.948;3.114;2024-02-21T13:24:01;9.07;;;7.63;;
18720;SDS011;9489;50.948;3.114;2024-02-21T13:26:27;8.18;;;7.38;;
18720;SDS011;9489;50.948;3.114;2024-02-21T13:28:53;10.32;;;8.32;;
18720;SDS011;9489;50.948;3.114;2024-02-21T13:31:19;12.50;;;9.13;;
18720;SDS011;9489;50.948;3.114;2024-02-21T13:33:45;9.18;;;8.32;;
18720;SDS011;9489;50.948;3.114;2024-02-21T13:36:10;9.18;;;8.13;;
18720;SDS011;9489;50.948;3.114;2024-02-21T13:38:36;9.55;;;8.65;;
18720;SDS011;9489;50.948;3.114;2024-02-21T13:41:04;11.73;;;8.48;;
18720;SDS011;9489;50.948;3.114;2024-02-21T13:43:31;9.52;;;7.95;;
18720;SDS011;9489;50.948;3.114;2024-02-21T13:45:57;8.90;;;7.65;;
18720;SDS011;9489;50.948;3.114;2024-02-21T13:48:24;9.55;;;8.57;;
18720;SDS011;9489;50.948;3.114;2024-02-21T13:50:50;9.30;;;8.27;;
18720;SDS011;9489;50.948;3.114;2024-02-21T13:53:15;11.32;;;8.23;;
18720;SDS011;9489;50.948;3.114;2024-02-21T13:55:44;9.07;;;7.80;;
18720;SDS011;9489;50.948;3.114;2024-02-21T13:58:10;10.13;;;9.07;;
18720;SDS011;9489;50.948;3.114;2024-02-21T14:00:36;9.50;;;7.80;;
18720;SDS011;9489;50.948;3.114;2024-02-21T14:03:01;11.60;;;8.60;;
18720;SDS011;9489;50.948;3.114;2024-02-21T14:05:27;10.63;;;8.70;;
18720;SDS011;9489;50.948;3.114;2024-02-21T14:07:53;12.18;;;8.38;;
18720;SDS011;9489;50.948;3.114;2024-02-21T14:10:19;9.48;;;8.57;;
18720;SDS011;9489;50.948;3.114;2024-02-21T14:12:46;9.18;;;8.25;;
18720;SDS011;9489;50.948;3.114;2024-02-21T14:15:12;10.90;;;8.43;;
18720;SDS011;9489;50.948;3.114;2024-02-21T14:17:38;9.40;;;8.35;;
18720;SDS011;9489;50.948;3.114;2024-02-21T14:20:04;9.40;;;8.45;;
18720;SDS011;9489;50.948;3.114;2024-02-21T14:22:32;11.10;;;9.35;;
18720;SDS011;9489;50.948;3.114;2024-02-21T14:24:58;10.82;;;9.40;;
18720;SDS011;9489;50.948;3.114;2024-02-21T14:27:23;11.65;;;9.40;;
18720;SDS011;9489;50.948;3.114;2024-02-21T14:29:49;9.57;;;8.32;;
18720;SDS011;9489;50.948;3.114;2024-02-21T14:32:15;12.55;;;9.38;;
18720;SDS011;9489;50.948;3.114;2024-02-21T14:34:40;10.82;;;9.05;;
18720;SDS011;9489;50.948;3.114;2024-02-21T14:37:06;10.68;;;9.57;;
18720;SDS011;9489;50.948;3.114;2024-02-21T14:39:32;11.13;;;9.38;;
18720;SDS011;9489;50.948;3.114;2024-02-21T14:41:59;11.52;;;10.23;;
18720;SDS011;9489;50.948;3.114;2024-02-21T14:44:25;13.63;;;10.82;;